Time;durP1;ratioP1;P1;durP2;ratioP2;P2;SDS_P1;SDS_P2;PMS_P1;PMS_P2;Temp;Humidity;BMP_temperature;BMP_pressure;BME280_temperature;BME280_humidity;BME280_pressure;Samples;Min_cycle;Max_cycle;Signal;HPM_P1;HPM_P2
2021/11/21 00:00:26;;;;;;;;;44.00;33.33;;;;;;;;5013981;28;46841;-73
2021/11/21 00:02:51;;;;;;;;;34.50;27.00;;;;;;;;5012451;28;45389;-73
2021/11/21 00:05:17;;;;;;;;;44.67;37.00;;;;;;;;5015436;28;45466;-73
2021/11/21 00:07:43;;;;;;;;;42.75;33.75;;;;;;;;5005392;28;46001;-73
2021/11/21 00:10:08;;;;;;;;;34.75;31.50;;;;;;;;5006563;28;45435;-73
2021/11/21 00:12:33;;;;;;;;;51.50;36.50;;;;;;;;5003964;28;45593;-73
2021/11/21 00:14:58;;;;;;;;;43.67;36.33;;;;;;;;5014156;28;45921;-73
2021/11/21 00:17:23;;;;;;;;;43.00;28.67;;;;;;;;5005204;28;45376;-73
2021/11/21 00:19:49;;;;;;;;;54.33;39.33;;;;;;;;5009695;28;45497;-73
2021/11/21 00:22:15;;;;;;;;;41.00;33.00;;;;;;;;5008462;28;45562;-73
2021/11/21 00:24:41;;;;;;;;;43.00;34.25;;;;;;;;5010210;28;45491;-73
2021/11/21 00:27:06;;;;;;;;;44.25;35.75;;;;;;;;5011172;28;45519;-73
2021/11/21 00:29:32;;;;;;;;;39.50;31.75;;;;;;;;5001318;28;45564;-73
2021/11/21 00:31:57;;;;;;;;;46.75;35.75;;;;;;;;5012532;28;45427;-74
2021/11/21 00:34:22;;;;;;;;;46.67;34.00;;;;;;;;5008255;28;45535;-73
2021/11/21 00:36:48;;;;;;;;;45.33;35.00;;;;;;;;5005265;28;45569;-73
2021/11/21 00:39:13;;;;;;;;;41.00;30.00;;;;;;;;5005302;28;46257;-73
2021/11/21 00:41:38;;;;;;;;;41.00;32.67;;;;;;;;5010565;28;45335;-73
2021/11/21 00:44:04;;;;;;;;;40.50;33.00;;;;;;;;5002681;28;45364;-73
2021/11/21 00:46:29;;;;;;;;;49.00;33.33;;;;;;;;4999235;28;45766;-73
2021/11/21 00:48:54;;;;;;;;;44.00;33.67;;;;;;;;5002763;28;45904;-73
2021/11/21 00:51:19;;;;;;;;;39.75;31.75;;;;;;;;5000103;28;45331;-73
2021/11/21 00:53:46;;;;;;;;;41.00;35.00;;;;;;;;4998622;28;47384;-73
2021/11/21 00:56:12;;;;;;;;;48.25;36.25;;;;;;;;5001684;28;45303;-73
2021/11/21 00:58:38;;;;;;;;;50.00;36.25;;;;;;;;5005565;28;46256;-73
2021/11/21 01:01:04;;;;;;;;;46.50;35.75;;;;;;;;5007854;28;45475;-73
2021/11/21 01:03:30;;;;;;;;;46.50;33.50;;;;;;;;5002806;28;45464;-73
2021/11/21 01:05:56;;;;;;;;;45.75;32.00;;;;;;;;4997300;28;45450;-73
2021/11/21 01:08:21;;;;;;;;;41.50;31.25;;;;;;;;5000053;28;45452;-73
2021/11/21 01:10:48;;;;;;;;;42.25;34.25;;;;;;;;5002935;28;45232;-73
2021/11/21 01:13:13;;;;;;;;;44.50;35.50;;;;;;;;5002401;28;45649;-73
2021/11/21 01:15:39;;;;;;;;;51.67;36.00;;;;;;;;5013218;28;45545;-73
2021/11/21 01:18:05;;;;;;;;;45.75;36.75;;;;;;;;5009027;28;46195;-73
2021/11/21 01:20:33;;;;;;;;;59.25;35.50;;;;;;;;5000990;28;45428;-73
2021/11/21 01:22:58;;;;;;;;;56.50;37.75;;;;;;;;5001028;28;45504;-73
2021/11/21 01:25:24;;;;;;;;;41.67;36.67;;;;;;;;4989459;28;45500;-73
2021/11/21 01:27:49;;;;;;;;;46.00;34.00;;;;;;;;5004711;28;46022;-73
2021/11/21 01:30:16;;;;;;;;;40.00;29.00;;;;;;;;5012053;28;45387;-73
2021/11/21 01:32:42;;;;;;;;;50.25;35.50;;;;;;;;5009819;28;45376;-73
2021/11/21 01:35:08;;;;;;;;;53.50;40.00;;;;;;;;5001374;28;45480;-73
2021/11/21 01:37:33;;;;;;;;;33.75;25.00;;;;;;;;5004091;28;45526;-73
2021/11/21 01:39:59;;;;;;;;;39.33;36.00;;;;;;;;5001622;28;45458;-73
2021/11/21 01:42:24;;;;;;;;;47.00;37.75;;;;;;;;5014446;28;45498;-73
2021/11/21 01:44:51;;;;;;;;;55.00;38.67;;;;;;;;5002111;28;45437;-73
2021/11/21 01:47:17;;;;;;;;;54.25;39.25;;;;;;;;5015123;28;46277;-73
2021/11/21 01:49:42;;;;;;;;;52.67;35.33;;;;;;;;5013895;28;45473;-73
2021/11/21 01:52:07;;;;;;;;;52.33;40.00;;;;;;;;5008249;28;45451;-73
2021/11/21 01:54:33;;;;;;;;;54.50;37.50;;;;;;;;5005015;28;45469;-73
2021/11/21 01:56:59;;;;;;;;;56.25;37.00;;;;;;;;5000751;28;45463;-73
2021/11/21 01:59:24;;;;;;;;;55.75;37.50;;;;;;;;4995866;28;45332;-73
2021/11/21 02:01:49;;;;;;;;;55.75;40.25;;;;;;;;5003449;28;45434;-73
2021/11/21 02:04:15;;;;;;;;;47.33;38.00;;;;;;;;5007999;28;45643;-73
2021/11/21 02:06:40;;;;;;;;;53.00;41.33;;;;;;;;5002907;28;45521;-72
2021/11/21 02:09:06;;;;;;;;;45.33;32.67;;;;;;;;5005961;28;45502;-72
2021/11/21 02:11:32;;;;;;;;;48.50;37.00;;;;;;;;5002892;28;45563;-73
2021/11/21 02:13:57;;;;;;;;;49.75;38.50;;;;;;;;5002706;28;46295;-73
2021/11/21 02:16:24;;;;;;;;;44.25;36.00;;;;;;;;5011507;28;47139;-72
2021/11/21 02:18:50;;;;;;;;;38.50;31.50;;;;;;;;5012499;28;45489;-72
2021/11/21 02:21:16;;;;;;;;;37.75;32.25;;;;;;;;5014796;28;45470;-73
2021/11/21 02:23:42;;;;;;;;;46.25;35.75;;;;;;;;5001183;28;45292;-72
2021/11/21 02:26:07;;;;;;;;;45.75;34.25;;;;;;;;5004364;28;45420;-73
2021/11/21 02:28:33;;;;;;;;;40.50;27.25;;;;;;;;5005062;28;45420;-73
2021/11/21 02:30:59;;;;;;;;;33.50;28.50;;;;;;;;5004662;28;45482;-73
2021/11/21 02:33:24;;;;;;;;;34.25;27.00;;;;;;;;5006871;28;45562;-73
2021/11/21 02:35:51;;;;;;;;;34.00;26.67;;;;;;;;5000274;28;47443;-73
2021/11/21 02:38:18;;;;;;;;;32.75;24.25;;;;;;;;5014069;28;45919;-73
2021/11/21 02:40:44;;;;;;;;;33.75;21.50;;;;;;;;5010482;28;45446;-73
2021/11/21 02:43:09;;;;;;;;;36.25;27.00;;;;;;;;5009502;28;45513;-73
2021/11/21 02:45:35;;;;;;;;;35.50;27.25;;;;;;;;5010313;28;45372;-73
2021/11/21 02:48:00;;;;;;;;;35.33;27.00;;;;;;;;4998690;28;45581;-73
2021/11/21 02:50:25;;;;;;;;;33.67;23.67;;;;;;;;5012142;28;45375;-73
2021/11/21 02:52:51;;;;;;;;;38.50;29.25;;;;;;;;5005480;28;45418;-73
2021/11/21 02:55:17;;;;;;;;;40.00;26.50;;;;;;;;5008935;28;46099;-72
2021/11/21 02:57:42;;;;;;;;;35.25;22.75;;;;;;;;5011190;28;45271;-73
2021/11/21 03:00:10;;;;;;;;;30.00;24.50;;;;;;;;5012122;28;45541;-73
2021/11/21 03:02:39;;;;;;;;;36.00;27.75;;;;;;;;5000199;28;45615;-73
2021/11/21 03:05:05;;;;;;;;;35.25;28.25;;;;;;;;5010924;28;46118;-73
2021/11/21 03:07:30;;;;;;;;;35.25;26.50;;;;;;;;5008792;28;45483;-73
2021/11/21 03:09:55;;;;;;;;;30.33;22.00;;;;;;;;4984891;28;45575;-73
2021/11/21 03:12:22;;;;;;;;;38.67;28.00;;;;;;;;5003553;28;45443;-72
2021/11/21 03:14:48;;;;;;;;;38.50;28.00;;;;;;;;5013658;28;46185;-73
2021/11/21 03:17:13;;;;;;;;;34.25;23.50;;;;;;;;5014920;28;45377;-73
2021/11/21 03:19:38;;;;;;;;;31.25;25.50;;;;;;;;5007729;28;45352;-73
2021/11/21 03:22:03;;;;;;;;;33.75;23.50;;;;;;;;5003838;28;45392;-73
2021/11/21 03:24:29;;;;;;;;;31.33;26.33;;;;;;;;5002415;28;45523;-73
2021/11/21 03:26:54;;;;;;;;;30.25;25.75;;;;;;;;4998952;28;45344;-73
2021/11/21 03:29:20;;;;;;;;;22.00;21.00;;;;;;;;5010868;28;45280;-73
2021/11/21 03:31:45;;;;;;;;;32.33;22.67;;;;;;;;5003998;28;45736;-73
2021/11/21 03:34:11;;;;;;;;;35.33;25.33;;;;;;;;5008107;28;46372;-73
2021/11/21 03:36:38;;;;;;;;;24.75;21.25;;;;;;;;5011681;28;46034;-72
2021/11/21 03:39:03;;;;;;;;;35.75;24.25;;;;;;;;5008703;28;46324;-73
2021/11/21 03:41:29;;;;;;;;;35.00;24.75;;;;;;;;5012441;28;45442;-72
2021/11/21 03:43:54;;;;;;;;;28.75;21.25;;;;;;;;5003915;28;45538;-73
2021/11/21 03:46:21;;;;;;;;;29.25;25.00;;;;;;;;5009440;28;45891;-72
2021/11/21 03:48:46;;;;;;;;;30.00;22.25;;;;;;;;5001757;28;45512;-73
2021/11/21 03:51:11;;;;;;;;;30.50;22.50;;;;;;;;5008855;28;45849;-73
2021/11/21 03:53:37;;;;;;;;;37.00;28.67;;;;;;;;4999998;28;48262;-73
2021/11/21 03:56:03;;;;;;;;;32.00;24.75;;;;;;;;5006827;28;45674;-73
2021/11/21 03:58:28;;;;;;;;;32.00;23.75;;;;;;;;5008336;28;45439;-73
2021/11/21 04:00:53;;;;;;;;;32.33;24.00;;;;;;;;5003592;28;45343;-73
2021/11/21 04:03:19;;;;;;;;;31.00;22.67;;;;;;;;4999182;28;45927;-72
2021/11/21 04:05:45;;;;;;;;;44.50;27.75;;;;;;;;5007757;28;45460;-73
2021/11/21 04:08:10;;;;;;;;;31.50;25.00;;;;;;;;5007304;28;45524;-73
2021/11/21 04:10:35;;;;;;;;;40.50;26.25;;;;;;;;5009381;28;45463;-73
2021/11/21 04:13:01;;;;;;;;;36.50;25.75;;;;;;;;5011170;28;45435;-73
2021/11/21 04:15:27;;;;;;;;;39.25;22.25;;;;;;;;5001378;28;45394;-73
2021/11/21 04:17:52;;;;;;;;;33.50;25.00;;;;;;;;5005735;28;45769;-72
2021/11/21 04:20:17;;;;;;;;;40.33;24.00;;;;;;;;5012096;28;45403;-73
2021/11/21 04:22:42;;;;;;;;;25.67;23.00;;;;;;;;5005350;28;45998;-72
2021/11/21 04:25:09;;;;;;;;;22.00;16.00;;;;;;;;5001893;28;45617;-73
2021/11/21 04:27:34;;;;;;;;;28.25;20.75;;;;;;;;4997876;28;45539;-73
2021/11/21 04:30:00;;;;;;;;;43.25;26.50;;;;;;;;4997608;28;45571;-73
2021/11/21 04:32:26;;;;;;;;;32.00;28.00;;;;;;;;5001623;28;45458;-73
2021/11/21 04:34:51;;;;;;;;;29.25;22.00;;;;;;;;5003354;28;45273;-73
2021/11/21 04:37:17;;;;;;;;;26.50;22.75;;;;;;;;5013784;28;45514;-73
2021/11/21 04:39:42;;;;;;;;;30.50;25.25;;;;;;;;5013399;28;45462;-73
2021/11/21 04:42:07;;;;;;;;;33.00;26.00;;;;;;;;5008117;28;46146;-73
2021/11/21 04:44:32;;;;;;;;;37.00;29.67;;;;;;;;4999911;28;45485;-73
2021/11/21 04:46:58;;;;;;;;;37.00;25.67;;;;;;;;5000336;28;45328;-73
2021/11/21 04:49:23;;;;;;;;;29.25;26.75;;;;;;;;5003006;28;45488;-73
2021/11/21 04:51:49;;;;;;;;;35.33;27.67;;;;;;;;5002526;28;45955;-73
2021/11/21 04:54:16;;;;;;;;;37.33;25.33;;;;;;;;5012048;28;45415;-73
2021/11/21 04:56:41;;;;;;;;;33.75;24.00;;;;;;;;4996208;28;45320;-73
2021/11/21 04:59:07;;;;;;;;;30.50;28.50;;;;;;;;5004486;28;45376;-73
2021/11/21 05:01:32;;;;;;;;;30.67;24.33;;;;;;;;5002366;28;45466;-73
2021/11/21 05:03:57;;;;;;;;;31.67;25.67;;;;;;;;5003516;28;45451;-73
2021/11/21 05:06:22;;;;;;;;;29.00;22.67;;;;;;;;5008184;28;45477;-73
2021/11/21 05:08:47;;;;;;;;;30.00;24.67;;;;;;;;4997984;28;45438;-73
2021/11/21 05:11:13;;;;;;;;;37.33;26.00;;;;;;;;5001189;28;45920;-73
2021/11/21 05:13:38;;;;;;;;;35.33;23.00;;;;;;;;5005877;28;45345;-72
2021/11/21 05:16:03;;;;;;;;;34.00;28.33;;;;;;;;5004670;28;45470;-73
2021/11/21 05:18:28;;;;;;;;;31.50;20.25;;;;;;;;5005493;28;45340;-72
2021/11/21 05:20:54;;;;;;;;;32.33;29.00;;;;;;;;5002534;28;46097;-73
2021/11/21 05:23:19;;;;;;;;;33.00;22.00;;;;;;;;5004474;28;45485;-73
2021/11/21 05:25:44;;;;;;;;;39.33;25.33;;;;;;;;5008609;28;45945;-73
2021/11/21 05:28:09;;;;;;;;;28.67;24.00;;;;;;;;5002024;28;45425;-73
2021/11/21 05:30:35;;;;;;;;;30.33;24.33;;;;;;;;5005412;28;45451;-73
2021/11/21 05:33:00;;;;;;;;;30.50;22.50;;;;;;;;5010094;28;45405;-73
2021/11/21 05:35:25;;;;;;;;;31.00;20.67;;;;;;;;5003380;28;45530;-73
2021/11/21 05:37:51;;;;;;;;;34.67;20.00;;;;;;;;5003092;28;45529;-73
2021/11/21 05:40:17;;;;;;;;;36.25;24.25;;;;;;;;5004838;28;47162;-73
2021/11/21 05:42:42;;;;;;;;;27.50;19.75;;;;;;;;5001096;28;45862;-73
2021/11/21 05:45:08;;;;;;;;;27.33;22.00;;;;;;;;5015645;28;45387;-72
2021/11/21 05:47:33;;;;;;;;;24.25;19.25;;;;;;;;5006298;28;45349;-73
2021/11/21 05:49:59;;;;;;;;;23.00;16.75;;;;;;;;5008543;28;46136;-73
2021/11/21 05:52:24;;;;;;;;;27.25;21.00;;;;;;;;5002623;28;45459;-73
2021/11/21 05:54:50;;;;;;;;;32.67;22.67;;;;;;;;5005732;28;45464;-73
2021/11/21 05:57:16;;;;;;;;;33.00;19.75;;;;;;;;5010715;28;45203;-73
2021/11/21 05:59:41;;;;;;;;;28.00;21.25;;;;;;;;5010118;28;46339;-73
2021/11/21 06:02:07;;;;;;;;;34.00;22.00;;;;;;;;5004773;28;45460;-73
2021/11/21 06:04:32;;;;;;;;;31.25;23.00;;;;;;;;5011375;28;45866;-72
2021/11/21 06:06:58;;;;;;;;;30.00;22.00;;;;;;;;5005239;28;45376;-73
2021/11/21 06:09:23;;;;;;;;;30.00;26.75;;;;;;;;5002735;28;45804;-73
2021/11/21 06:11:49;;;;;;;;;26.00;20.33;;;;;;;;5000649;28;45541;-73
2021/11/21 06:14:14;;;;;;;;;29.75;23.75;;;;;;;;5012862;28;45434;-73
2021/11/21 06:16:39;;;;;;;;;30.00;24.25;;;;;;;;5007318;28;45479;-73
2021/11/21 06:19:05;;;;;;;;;29.50;21.50;;;;;;;;5006109;28;45828;-73
2021/11/21 06:21:31;;;;;;;;;33.50;23.25;;;;;;;;5013037;28;45657;-73
2021/11/21 06:23:56;;;;;;;;;31.33;23.00;;;;;;;;5015308;28;45392;-73
2021/11/21 06:26:21;;;;;;;;;36.67;23.00;;;;;;;;5012525;28;45487;-72
2021/11/21 06:28:47;;;;;;;;;34.00;27.67;;;;;;;;5011734;28;46206;-73
2021/11/21 06:31:12;;;;;;;;;33.00;21.75;;;;;;;;5011268;28;45442;-73
2021/11/21 06:33:37;;;;;;;;;32.33;24.67;;;;;;;;5004912;28;45410;-73
2021/11/21 06:36:02;;;;;;;;;35.00;22.33;;;;;;;;5001948;28;45332;-73
2021/11/21 06:38:29;;;;;;;;;37.00;27.50;;;;;;;;5001485;28;46258;-73
2021/11/21 06:40:54;;;;;;;;;34.25;23.50;;;;;;;;5010768;28;45306;-73
2021/11/21 06:43:19;;;;;;;;;27.00;22.50;;;;;;;;5014757;28;45486;-73
2021/11/21 06:45:45;;;;;;;;;27.33;19.67;;;;;;;;5006351;28;45403;-73
2021/11/21 06:48:11;;;;;;;;;27.50;18.50;;;;;;;;5000519;28;45984;-73
2021/11/21 06:50:37;;;;;;;;;21.50;17.25;;;;;;;;5000383;28;45442;-73
2021/11/21 06:53:02;;;;;;;;;23.00;17.75;;;;;;;;5004315;28;45633;-73
2021/11/21 06:55:28;;;;;;;;;24.25;17.50;;;;;;;;5007706;28;45543;-73
2021/11/21 06:57:55;;;;;;;;;26.00;18.00;;;;;;;;5008623;28;45886;-73
2021/11/21 07:00:20;;;;;;;;;24.00;21.75;;;;;;;;4998522;28;45602;-73
2021/11/21 07:02:45;;;;;;;;;29.33;21.67;;;;;;;;5000059;28;45453;-73
2021/11/21 07:05:10;;;;;;;;;23.00;17.67;;;;;;;;4999057;28;45416;-73
2021/11/21 07:07:36;;;;;;;;;20.67;16.33;;;;;;;;5003534;28;46375;-73
2021/11/21 07:10:02;;;;;;;;;22.50;16.00;;;;;;;;5004617;28;47654;-73
2021/11/21 07:12:28;;;;;;;;;24.75;18.25;;;;;;;;5013726;28;45545;-73
2021/11/21 07:14:53;;;;;;;;;30.67;21.67;;;;;;;;4999652;28;45340;-73
2021/11/21 07:17:18;;;;;;;;;24.00;18.00;;;;;;;;5002506;28;46309;-73
2021/11/21 07:19:43;;;;;;;;;22.67;16.33;;;;;;;;5007807;28;45344;-73
2021/11/21 07:22:09;;;;;;;;;26.33;18.00;;;;;;;;5002379;28;45455;-73
2021/11/21 07:24:34;;;;;;;;;23.50;17.00;;;;;;;;5003374;28;45619;-73
2021/11/21 07:26:59;;;;;;;;;26.33;21.67;;;;;;;;4999310;28;46362;-73
2021/11/21 07:29:31;;;;;;;;;25.00;20.25;;;;;;;;5012380;28;45400;-73
2021/11/21 07:31:57;;;;;;;;;29.25;22.50;;;;;;;;5009770;28;45555;-73
2021/11/21 07:34:22;;;;;;;;;25.75;22.00;;;;;;;;5008451;28;45479;-73
2021/11/21 07:36:48;;;;;;;;;29.67;25.67;;;;;;;;5003362;28;46219;-73
2021/11/21 07:39:13;;;;;;;;;27.00;19.25;;;;;;;;5010753;28;45387;-73
2021/11/21 07:41:38;;;;;;;;;25.33;22.00;;;;;;;;4999654;28;45381;-73
2021/11/21 07:44:04;;;;;;;;;25.67;19.67;;;;;;;;5001102;28;45383;-73
2021/11/21 07:46:29;;;;;;;;;32.00;21.75;;;;;;;;4998955;28;45389;-73
2021/11/21 07:48:55;;;;;;;;;29.67;21.33;;;;;;;;4999602;28;46912;-73
2021/11/21 07:51:20;;;;;;;;;26.00;20.67;;;;;;;;5007543;28;45411;-73
2021/11/21 07:53:45;;;;;;;;;29.00;21.33;;;;;;;;4999028;28;45316;-72
2021/11/21 07:56:10;;;;;;;;;23.67;15.67;;;;;;;;5011933;28;46141;-72
2021/11/21 07:58:35;;;;;;;;;24.67;18.67;;;;;;;;5002799;28;45613;-74
2021/11/21 08:01:01;;;;;;;;;25.67;20.67;;;;;;;;5004474;28;45524;-71
2021/11/21 08:03:26;;;;;;;;;26.00;19.33;;;;;;;;5001950;28;45607;-72
2021/11/21 08:05:51;;;;;;;;;22.33;19.33;;;;;;;;5001154;28;45496;-72
2021/11/21 08:08:16;;;;;;;;;31.67;17.33;;;;;;;;5002446;28;46412;-72
2021/11/21 08:10:42;;;;;;;;;26.00;20.67;;;;;;;;5001026;28;45447;-72
2021/11/21 08:13:08;;;;;;;;;27.00;18.25;;;;;;;;5000488;28;45551;-72
2021/11/21 08:15:33;;;;;;;;;24.00;17.75;;;;;;;;5000833;28;45522;-72
2021/11/21 08:17:59;;;;;;;;;22.00;16.25;;;;;;;;4981550;28;45622;-72
2021/11/21 08:20:26;;;;;;;;;23.50;19.00;;;;;;;;5004940;28;45603;-72
2021/11/21 08:22:51;;;;;;;;;20.75;17.50;;;;;;;;5005618;28;45524;-72
2021/11/21 08:25:16;;;;;;;;;26.00;18.00;;;;;;;;5009290;28;46222;-72
2021/11/21 08:27:41;;;;;;;;;31.33;18.00;;;;;;;;5010926;28;45617;-71
2021/11/21 08:30:08;;;;;;;;;28.00;22.00;;;;;;;;5000040;28;45745;-72
2021/11/21 08:32:33;;;;;;;;;26.25;19.25;;;;;;;;5001799;28;45439;-72
2021/11/21 08:34:59;;;;;;;;;24.25;18.50;;;;;;;;5009446;28;46241;-72
2021/11/21 08:37:24;;;;;;;;;28.25;20.25;;;;;;;;5006471;28;45597;-72
2021/11/21 08:39:49;;;;;;;;;23.67;18.33;;;;;;;;5002483;28;45314;-72
2021/11/21 08:42:15;;;;;;;;;59.50;43.25;;;;;;;;5005941;28;45598;-72
2021/11/21 08:44:40;;;;;;;;;19.50;18.50;;;;;;;;4999755;28;45321;-72
2021/11/21 08:47:05;;;;;;;;;26.00;18.67;;;;;;;;5002255;28;45296;-72
2021/11/21 08:49:30;;;;;;;;;27.33;17.00;;;;;;;;5003339;28;45292;-72
2021/11/21 08:51:55;;;;;;;;;27.33;17.67;;;;;;;;5006362;28;45474;-72
2021/11/21 08:54:21;;;;;;;;;28.33;20.33;;;;;;;;5005754;28;45982;-72
2021/11/21 08:56:47;;;;;;;;;27.25;18.75;;;;;;;;5009172;28;45233;-73
2021/11/21 08:59:13;;;;;;;;;22.75;19.75;;;;;;;;5014068;28;45349;-72
2021/11/21 09:01:38;;;;;;;;;28.25;21.50;;;;;;;;5009673;28;45587;-72
2021/11/21 09:04:03;;;;;;;;;30.25;18.50;;;;;;;;5009579;28;45253;-72
2021/11/21 09:06:29;;;;;;;;;30.00;25.00;;;;;;;;5010653;28;45349;-72
2021/11/21 09:08:54;;;;;;;;;28.67;20.33;;;;;;;;4998038;28;45735;-72
2021/11/21 09:11:20;;;;;;;;;21.50;19.50;;;;;;;;5010877;28;45529;-72
2021/11/21 09:13:45;;;;;;;;;31.00;21.33;;;;;;;;5004804;28;45279;-72
2021/11/21 09:16:10;;;;;;;;;28.00;20.00;;;;;;;;5002479;28;45428;-72
2021/11/21 09:18:36;;;;;;;;;25.33;21.00;;;;;;;;5001773;28;45528;-72
2021/11/21 09:21:01;;;;;;;;;23.50;21.75;;;;;;;;5000851;28;45703;-72
2021/11/21 09:23:26;;;;;;;;;24.33;17.33;;;;;;;;5005006;28;46165;-72
2021/11/21 09:25:52;;;;;;;;;28.00;18.00;;;;;;;;5003976;28;45320;-72
2021/11/21 09:28:19;;;;;;;;;27.75;22.75;;;;;;;;5002650;28;45473;-72
2021/11/21 09:30:44;;;;;;;;;19.00;18.25;;;;;;;;5013018;28;45490;-72
2021/11/21 09:33:10;;;;;;;;;27.33;14.00;;;;;;;;4997572;28;45530;-72
2021/11/21 09:35:35;;;;;;;;;20.75;17.75;;;;;;;;4998704;28;45393;-72
2021/11/21 09:38:00;;;;;;;;;27.33;21.00;;;;;;;;5008839;28;45546;-72
2021/11/21 09:40:25;;;;;;;;;28.75;25.00;;;;;;;;5006729;28;45452;-72
2021/11/21 09:42:51;;;;;;;;;24.33;20.00;;;;;;;;5002143;28;45885;-72
2021/11/21 09:45:17;;;;;;;;;22.75;19.00;;;;;;;;4997861;28;45711;-72
2021/11/21 09:47:53;;;;;;;;;25.25;19.00;;;;;;;;4997766;28;45431;-72
2021/11/21 09:50:19;;;;;;;;;30.50;22.50;;;;;;;;4999724;28;45463;-72
2021/11/21 09:52:44;;;;;;;;;29.75;22.75;;;;;;;;5010643;28;47120;-72
2021/11/21 09:55:09;;;;;;;;;27.25;21.50;;;;;;;;5008599;28;45653;-72
2021/11/21 09:57:36;;;;;;;;;30.67;20.00;;;;;;;;5005441;28;45610;-72
2021/11/21 10:00:04;;;;;;;;;29.50;20.00;;;;;;;;5000819;28;45543;-72
2021/11/21 10:02:32;;;;;;;;;30.75;23.25;;;;;;;;4995978;28;46496;-72
2021/11/21 10:04:58;;;;;;;;;29.00;22.50;;;;;;;;5005385;28;45514;-72
2021/11/21 10:07:28;;;;;;;;;32.00;24.25;;;;;;;;5003750;28;45554;-72
2021/11/21 10:09:54;;;;;;;;;28.00;22.75;;;;;;;;5005558;28;45486;-72
2021/11/21 10:12:21;;;;;;;;;37.00;25.75;;;;;;;;5002234;28;46248;-72
2021/11/21 10:14:53;;;;;;;;;29.25;21.50;;;;;;;;5012831;28;45807;-72
2021/11/21 10:17:20;;;;;;;;;26.25;23.75;;;;;;;;5014843;28;45447;-71
2021/11/21 10:20:04;;;;;;;;;31.00;21.75;;;;;;;;5012159;28;45866;-73
2021/11/21 10:22:49;;;;;;;;;23.25;19.50;;;;;;;;5009455;28;45418;-73
2021/11/21 10:25:37;;;;;;;;;26.75;20.50;;;;;;;;5007115;28;45597;-71
2021/11/21 10:28:06;;;;;;;;;26.50;23.00;;;;;;;;5004987;28;45486;-72
2021/11/21 10:30:31;;;;;;;;;35.00;24.25;;;;;;;;5003762;28;45535;-72
2021/11/21 10:33:01;;;;;;;;;29.50;20.75;;;;;;;;5000271;28;45923;-72
2021/11/21 10:35:26;;;;;;;;;35.50;25.00;;;;;;;;5002245;28;45869;-72
2021/11/21 10:37:56;;;;;;;;;42.33;26.00;;;;;;;;5005162;28;45478;-72
2021/11/21 10:40:22;;;;;;;;;30.25;23.25;;;;;;;;5006561;28;45593;-73
2021/11/21 10:42:48;;;;;;;;;37.50;25.00;;;;;;;;5005699;28;46042;-72
2021/11/21 10:45:14;;;;;;;;;36.50;22.50;;;;;;;;5002538;28;45443;-72
2021/11/21 10:47:50;;;;;;;;;33.75;24.00;;;;;;;;5013066;28;45507;-72
2021/11/21 10:50:49;;;;;;;;;31.00;25.75;;;;;;;;5002069;28;45445;-72
2021/11/21 10:53:15;;;;;;;;;30.75;25.25;;;;;;;;4991308;28;45354;-72
2021/11/21 10:55:40;;;;;;;;;30.00;23.00;;;;;;;;5009971;28;45465;-72
2021/11/21 10:58:23;;;;;;;;;33.33;28.00;;;;;;;;5010933;28;45439;-72
2021/11/21 11:00:57;;;;;;;;;29.25;23.50;;;;;;;;4999497;28;45294;-73
2021/11/21 11:03:24;;;;;;;;;26.75;21.50;;;;;;;;5002199;28;45978;-72
2021/11/21 11:05:50;;;;;;;;;34.50;29.75;;;;;;;;5014429;28;45463;-72
2021/11/21 11:08:25;;;;;;;;;32.33;26.00;;;;;;;;5011654;28;45436;-73
2021/11/21 11:10:50;;;;;;;;;36.50;24.00;;;;;;;;5004854;28;45376;-72
2021/11/21 11:13:15;;;;;;;;;28.67;23.67;;;;;;;;5006638;28;46046;-72
2021/11/21 11:15:42;;;;;;;;;37.67;29.00;;;;;;;;5006114;28;45515;-73
2021/11/21 11:18:10;;;;;;;;;36.00;27.25;;;;;;;;5000265;28;45461;-72
2021/11/21 11:20:43;;;;;;;;;47.50;29.75;;;;;;;;5011816;28;45476;-73
2021/11/21 11:23:09;;;;;;;;;32.25;28.25;;;;;;;;5011329;28;46190;-72
2021/11/21 11:25:36;;;;;;;;;38.25;29.25;;;;;;;;5010761;28;45329;-73
2021/11/21 11:28:13;;;;;;;;;38.50;30.75;;;;;;;;5012295;28;45538;-72
2021/11/21 11:30:40;;;;;;;;;31.00;28.50;;;;;;;;5006072;28;45569;-73
2021/11/21 11:33:05;;;;;;;;;32.00;25.25;;;;;;;;5014068;28;46320;-71
2021/11/21 11:35:31;;;;;;;;;35.00;25.00;;;;;;;;5006039;28;45636;-71
2021/11/21 11:37:57;;;;;;;;;23.50;23.50;;;;;;;;5004815;28;45529;-71
2021/11/21 11:40:25;;;;;;;;;37.75;27.50;;;;;;;;5003654;28;45455;-72
2021/11/21 11:42:51;;;;;;;;;34.75;30.75;;;;;;;;5003552;28;45370;-73
2021/11/21 11:45:16;;;;;;;;;43.50;32.75;;;;;;;;5000519;28;45965;-72
2021/11/21 11:47:41;;;;;;;;;36.00;29.67;;;;;;;;4999514;28;45475;-72
2021/11/21 11:50:07;;;;;;;;;38.67;32.33;;;;;;;;5003561;28;45285;-72
2021/11/21 11:52:51;;;;;;;;;37.67;30.33;;;;;;;;5003479;28;46905;-72
2021/11/21 11:55:16;;;;;;;;;36.25;27.50;;;;;;;;5003504;28;45914;-72
2021/11/21 11:57:41;;;;;;;;;41.50;32.00;;;;;;;;5014712;28;45505;-72
2021/11/21 12:00:25;;;;;;;;;38.00;30.33;;;;;;;;4999182;28;45761;-72
2021/11/21 12:02:52;;;;;;;;;44.75;35.75;;;;;;;;5011841;28;47403;-72
2021/11/21 12:05:28;;;;;;;;;44.00;35.50;;;;;;;;5008713;28;45884;-72
2021/11/21 12:08:09;;;;;;;;;41.75;31.50;;;;;;;;5002057;28;45538;-73
2021/11/21 12:10:43;;;;;;;;;40.25;30.75;;;;;;;;5006465;28;45534;-73
2021/11/21 12:13:08;;;;;;;;;43.00;35.25;;;;;;;;5010532;28;48632;-72
2021/11/21 12:15:35;;;;;;;;;46.50;35.00;;;;;;;;5002359;28;45547;-72
2021/11/21 12:18:04;;;;;;;;;35.50;29.50;;;;;;;;4999316;28;45365;-72
2021/11/21 12:20:49;;;;;;;;;35.75;30.50;;;;;;;;5004652;28;45403;-72
2021/11/21 12:23:34;;;;;;;;;44.25;37.25;;;;;;;;4998555;28;46020;-72
2021/11/21 12:26:18;;;;;;;;;41.75;34.25;;;;;;;;5008185;28;46001;-72
2021/11/21 12:28:54;;;;;;;;;43.50;34.00;;;;;;;;5006430;28;45366;-72
2021/11/21 12:31:29;;;;;;;;;36.25;30.75;;;;;;;;5006154;28;47865;-72
2021/11/21 12:34:14;;;;;;;;;48.00;36.00;;;;;;;;5008497;28;45509;-72
2021/11/21 12:36:58;;;;;;;;;45.50;33.00;;;;;;;;4997803;28;45472;-72
2021/11/21 12:39:28;;;;;;;;;35.75;30.75;;;;;;;;4999247;28;45528;-72
2021/11/21 12:42:00;;;;;;;;;34.25;31.75;;;;;;;;5009073;28;45418;-73
2021/11/21 12:44:25;;;;;;;;;41.00;31.00;;;;;;;;5011837;28;45421;-72
2021/11/21 12:46:57;;;;;;;;;34.33;23.33;;;;;;;;5005156;28;45488;-72
2021/11/21 12:49:23;;;;;;;;;35.50;28.75;;;;;;;;5006432;28;45413;-72
2021/11/21 12:52:07;;;;;;;;;33.25;26.00;;;;;;;;5002756;28;45749;-72
2021/11/21 12:54:33;;;;;;;;;40.50;29.25;;;;;;;;4998168;28;45579;-72
2021/11/21 12:56:58;;;;;;;;;37.75;29.00;;;;;;;;4998307;28;45592;-72
2021/11/21 12:59:42;;;;;;;;;22.75;20.75;;;;;;;;4997959;28;45577;-72
2021/11/21 13:02:07;;;;;;;;;31.25;23.25;;;;;;;;5006552;28;45585;-72
2021/11/21 13:04:46;;;;;;;;;31.75;26.00;;;;;;;;5002474;28;45967;-72
2021/11/21 13:07:31;;;;;;;;;22.75;22.75;;;;;;;;4999613;28;45588;-72
2021/11/21 13:09:57;;;;;;;;;30.00;22.50;;;;;;;;4998771;28;45654;-71
2021/11/21 13:12:30;;;;;;;;;24.00;18.75;;;;;;;;5002004;28;45458;-72
2021/11/21 13:15:04;;;;;;;;;31.50;23.00;;;;;;;;5007968;28;45554;-72
2021/11/21 13:17:29;;;;;;;;;27.50;19.75;;;;;;;;5002377;28;45905;-71
2021/11/21 13:20:08;;;;;;;;;22.67;18.33;;;;;;;;4997745;28;45462;-71
2021/11/21 13:22:51;;;;;;;;;22.50;17.75;;;;;;;;5001593;28;45435;-71
2021/11/21 13:25:28;;;;;;;;;22.75;19.00;;;;;;;;4992143;28;47496;-71
2021/11/21 13:28:12;;;;;;;;;22.00;18.25;;;;;;;;5007730;28;46005;-71
2021/11/21 13:30:37;;;;;;;;;28.00;22.00;;;;;;;;5008468;28;45686;-71
2021/11/21 13:33:15;;;;;;;;;21.33;18.33;;;;;;;;5014005;28;45553;-71
2021/11/21 13:35:40;;;;;;;;;20.75;15.50;;;;;;;;5006196;28;45242;-72
2021/11/21 13:38:05;;;;;;;;;19.75;15.25;;;;;;;;5011206;28;45495;-72
2021/11/21 13:40:31;;;;;;;;;26.33;16.33;;;;;;;;5016090;28;45326;-71
2021/11/21 13:43:06;;;;;;;;;17.00;15.33;;;;;;;;5009441;28;45435;-71
2021/11/21 13:45:31;;;;;;;;;31.75;22.00;;;;;;;;5003542;28;46132;-71
2021/11/21 13:47:56;;;;;;;;;25.00;20.67;;;;;;;;5010112;28;45348;-71
2021/11/21 13:50:32;;;;;;;;;27.00;19.00;;;;;;;;5012175;28;45395;-72
2021/11/21 13:52:58;;;;;;;;;21.50;18.50;;;;;;;;5007565;28;45434;-71
2021/11/21 13:55:27;;;;;;;;;22.00;17.25;;;;;;;;5015308;28;46827;-71
2021/11/21 13:57:56;;;;;;;;;17.25;16.75;;;;;;;;5010964;28;46011;-71
2021/11/21 14:00:27;;;;;;;;;20.00;18.50;;;;;;;;5007447;28;45506;-71
2021/11/21 14:03:02;;;;;;;;;19.75;16.25;;;;;;;;5015583;28;45419;-72
2021/11/21 14:05:29;;;;;;;;;26.00;20.00;;;;;;;;5008547;28;46890;-71
2021/11/21 14:08:00;;;;;;;;;15.75;14.75;;;;;;;;5005378;28;45315;-71
2021/11/21 14:10:29;;;;;;;;;23.75;17.75;;;;;;;;5009916;28;45482;-71
2021/11/21 14:13:13;;;;;;;;;21.25;15.00;;;;;;;;5012374;28;45539;-72
2021/11/21 14:15:38;;;;;;;;;23.00;18.50;;;;;;;;5005272;28;45994;-71